createdAt,value
2022-12-01T00:01:03.728Z,7.95
2022-12-01T00:03:31.554Z,8.38
2022-12-01T00:05:58.856Z,8.10
2022-12-01T00:08:25.481Z,8.00
2022-12-01T00:10:52.529Z,8.45
2022-12-01T00:13:19.218Z,7.70
2022-12-01T00:15:45.971Z,8.75
2022-12-01T00:18:13.947Z,8.77
2022-12-01T00:20:40.623Z,9.15
2022-12-01T00:23:07.299Z,8.32
2022-12-01T00:25:33.930Z,8.65
2022-12-01T00:28:00.553Z,8.85
2022-12-01T00:30:27.167Z,7.90
2022-12-01T00:32:53.740Z,9.27
2022-12-01T00:35:21.723Z,8.70
2022-12-01T00:37:48.367Z,8.55
2022-12-01T00:40:15.076Z,9.07
2022-12-01T00:42:41.719Z,9.40
2022-12-01T00:45:09.621Z,8.33
2022-12-01T00:47:36.257Z,9.63
2022-12-01T00:50:03.579Z,9.68
2022-12-01T00:52:31.514Z,8.23
2022-12-01T00:54:58.179Z,9.73
2022-12-01T00:57:24.850Z,8.70
2022-12-01T00:59:51.511Z,8.68
2022-12-01T01:02:18.915Z,8.77
2022-12-01T01:04:45.653Z,8.63
2022-12-01T01:07:12.280Z,8.40
2022-12-01T01:09:40.283Z,8.80
2022-12-01T01:12:07.085Z,8.48
2022-12-01T01:14:33.953Z,8.00
2022-12-01T01:17:00.622Z,8.98
2022-12-01T01:19:27.314Z,8.75
2022-12-01T01:21:53.910Z,8.67
2022-12-01T01:24:20.519Z,8.52
2022-12-01T01:26:48.513Z,8.70
2022-12-01T01:29:15.113Z,9.73
2022-12-01T01:31:41.809Z,9.23
2022-12-01T01:34:08.492Z,9.17
2022-12-01T01:36:35.153Z,8.48
2022-12-01T01:39:01.913Z,8.52
2022-12-01T01:41:28.891Z,8.32
2022-12-01T01:43:58.910Z,8.05
2022-12-01T01:46:27.860Z,9.73
2022-12-01T01:48:59.036Z,8.55
2022-12-01T01:51:29.732Z,8.43
2022-12-01T01:54:02.063Z,8.60
2022-12-01T01:56:29.695Z,8.82
2022-12-01T01:58:58.723Z,8.52
2022-12-01T02:01:25.368Z,9.57
2022-12-01T02:03:53.703Z,8.38
2022-12-01T02:06:21.888Z,8.52
2022-12-01T02:08:48.615Z,9.15
2022-12-01T02:11:37.310Z,8.60
2022-12-01T02:14:13.020Z,8.93
2022-12-01T02:16:49.463Z,8.90
2022-12-01T02:19:38.869Z,8.05
2022-12-01T02:22:19.406Z,9.70
2022-12-01T02:25:03.099Z,9.25
2022-12-01T02:27:42.465Z,8.05
2022-12-01T02:30:13.002Z,9.13
2022-12-01T02:33:05.475Z,9.82
2022-12-01T02:35:39.298Z,8.65
2022-12-01T02:38:15.537Z,8.85
2022-12-01T02:40:49.292Z,8.45
2022-12-01T02:43:21.909Z,9.35
2022-12-01T02:45:52.516Z,8.70
2022-12-01T02:48:25.931Z,8.50
2022-12-01T02:50:54.726Z,9.02
2022-12-01T02:53:21.782Z,9.05
2022-12-01T02:55:51.539Z,9.35
2022-12-01T02:58:18.424Z,7.95
2022-12-01T03:00:59.054Z,7.93
2022-12-01T03:06:07.931Z,8.50
2022-12-01T03:08:45.622Z,8.02
2022-12-01T03:11:16.462Z,9.02
2022-12-01T03:13:52.456Z,8.77
2022-12-01T03:16:26.633Z,8.55
2022-12-01T03:18:59.582Z,7.95
2022-12-01T03:21:32.459Z,9.35
2022-12-01T03:24:03.848Z,8.75
2022-12-01T03:26:32.835Z,9.77
2022-12-01T03:29:05.528Z,8.43
2022-12-01T03:31:35.184Z,8.63
2022-12-01T03:34:07.926Z,8.43
2022-12-01T03:36:37.671Z,8.98
2022-12-01T03:39:10.050Z,9.00
2022-12-01T03:41:42.096Z,9.18
2022-12-01T03:44:12.161Z,7.88
2022-12-01T03:46:45.866Z,8.48
2022-12-01T03:49:15.202Z,9.07
2022-12-01T03:51:51.997Z,8.75
2022-12-01T03:54:22.944Z,8.83
2022-12-01T03:56:55.238Z,8.93
2022-12-01T03:59:24.105Z,8.95
2022-12-01T04:01:51.221Z,7.95
2022-12-01T04:04:19.407Z,8.88
2022-12-01T04:06:48.469Z,9.07
2022-12-01T04:09:15.067Z,9.93
2022-12-01T04:11:41.790Z,8.98
2022-12-01T04:14:08.424Z,9.02
2022-12-01T04:16:35.200Z,9.20
2022-12-01T04:19:01.944Z,8.57
2022-12-01T04:21:29.953Z,8.90
2022-12-01T04:23:56.574Z,9.07
2022-12-01T04:26:23.232Z,8.90
2022-12-01T04:28:49.840Z,8.18
2022-12-01T04:31:16.693Z,8.13
2022-12-01T04:33:43.296Z,8.93
2022-12-01T04:36:10.514Z,8.82
2022-12-01T04:38:38.513Z,9.52
2022-12-01T04:41:08.750Z,8.63
2022-12-01T04:43:35.357Z,8.83
2022-12-01T04:46:02.687Z,8.00
2022-12-01T04:48:29.276Z,8.30
2022-12-01T04:50:55.943Z,8.52
2022-12-01T04:53:22.549Z,8.73
2022-12-01T04:55:50.562Z,8.40
2022-12-01T04:58:17.266Z,8.70
2022-12-01T05:00:44.087Z,9.35
2022-12-01T05:03:14.922Z,8.60
2022-12-01T05:05:41.883Z,9.40
2022-12-01T05:08:08.681Z,9.10
2022-12-01T05:10:35.513Z,9.45
2022-12-01T05:13:04.645Z,9.00
2022-12-01T05:15:31.720Z,9.60
2022-12-01T05:17:58.397Z,9.25
2022-12-01T05:20:26.070Z,9.90
2022-12-01T05:23:10.795Z,9.20
2022-12-01T05:25:38.815Z,8.90
2022-12-01T05:28:06.912Z,9.52
2022-12-01T05:30:35.306Z,9.10
2022-12-01T05:33:02.026Z,8.73
2022-12-01T05:35:28.716Z,9.10
2022-12-01T05:37:55.333Z,8.80
2022-12-01T05:40:22.002Z,10.00
2022-12-01T05:42:48.593Z,9.27
2022-12-01T05:45:16.645Z,8.77
2022-12-01T05:47:43.262Z,8.82
2022-12-01T05:50:10.801Z,8.18
2022-12-01T05:52:37.458Z,9.23
2022-12-01T05:55:04.427Z,9.02
2022-12-01T05:57:31.309Z,9.80
2022-12-01T05:59:58.305Z,9.18
2022-12-01T06:02:26.508Z,9.95
2022-12-01T06:04:53.193Z,9.65
2022-12-01T06:07:19.974Z,8.55
2022-12-01T06:09:46.869Z,10.35
2022-12-01T06:12:13.731Z,9.63
2022-12-01T06:14:40.544Z,10.35
2022-12-01T06:17:07.218Z,9.23
2022-12-01T06:19:35.180Z,9.38
2022-12-01T06:22:01.888Z,9.00
2022-12-01T06:24:28.479Z,8.90
2022-12-01T06:26:55.136Z,10.05
2022-12-01T06:29:21.810Z,9.48
2022-12-01T06:31:48.517Z,10.27
2022-12-01T06:34:15.208Z,10.18
2022-12-01T06:36:43.201Z,9.18
2022-12-01T06:39:10.112Z,8.75
2022-12-01T06:41:36.796Z,9.52
2022-12-01T06:44:04.006Z,9.82
2022-12-01T06:46:30.945Z,9.53
2022-12-01T06:48:57.727Z,9.63
2022-12-01T06:51:24.501Z,9.20
2022-12-01T06:53:54.700Z,9.27
2022-12-01T06:56:21.579Z,9.82
2022-12-01T06:58:49.067Z,9.15
2022-12-01T07:01:16.159Z,10.00
2022-12-01T07:03:42.776Z,9.48
2022-12-01T07:06:09.736Z,8.38
2022-12-01T07:08:36.451Z,9.23
2022-12-01T07:11:06.383Z,9.60
2022-12-01T07:13:34.572Z,9.15
2022-12-01T07:16:01.919Z,9.48
2022-12-01T07:18:28.638Z,9.50
2022-12-01T07:20:59.560Z,9.73
2022-12-01T07:23:26.192Z,9.00
2022-12-01T07:25:58.797Z,9.90
2022-12-01T07:28:27.119Z,8.75
2022-12-01T07:30:53.761Z,9.40
2022-12-01T07:33:20.510Z,9.45
2022-12-01T07:35:47.105Z,9.77
2022-12-01T07:38:16.598Z,9.18
2022-12-01T07:40:47.241Z,9.38
2022-12-01T07:43:13.914Z,8.93
2022-12-01T07:45:41.911Z,8.95
2022-12-01T07:48:08.616Z,9.03
2022-12-01T07:50:35.317Z,9.00
2022-12-01T07:53:05.120Z,9.20
2022-12-01T07:55:31.702Z,8.73
2022-12-01T07:57:59.484Z,8.88
2022-12-01T08:00:26.186Z,9.23
2022-12-01T08:02:54.478Z,9.88
2022-12-01T08:05:21.187Z,9.20
2022-12-01T08:07:47.946Z,8.90
2022-12-01T08:10:14.836Z,9.93
2022-12-01T08:12:41.427Z,9.05
2022-12-01T08:15:08.845Z,9.80
2022-12-01T08:17:35.475Z,10.10
2022-12-01T08:20:04.116Z,8.80
2022-12-01T08:22:30.720Z,9.13
2022-12-01T08:24:57.436Z,8.98
2022-12-01T08:27:24.079Z,9.35
2022-12-01T08:29:50.821Z,8.95
2022-12-01T08:32:18.342Z,8.80
2022-12-01T08:34:47.253Z,9.57
2022-12-01T08:37:19.939Z,10.50
2022-12-01T08:39:46.780Z,10.35
2022-12-01T08:42:13.570Z,9.18
2022-12-01T08:44:40.535Z,9.38
2022-12-01T08:47:07.349Z,9.07
2022-12-01T08:49:33.992Z,9.35
2022-12-01T08:52:00.766Z,8.68
2022-12-01T08:54:28.827Z,9.93
2022-12-01T08:56:55.458Z,9.25
2022-12-01T08:59:22.050Z,9.15
2022-12-01T09:01:48.750Z,9.82
2022-12-01T09:04:15.383Z,8.85
2022-12-01T09:06:43.658Z,9.27
2022-12-01T09:09:12.585Z,9.73
2022-12-01T09:11:41.758Z,9.13
2022-12-01T09:14:08.378Z,10.38
2022-12-01T09:16:35.267Z,8.48
2022-12-01T09:19:02.197Z,10.07
2022-12-01T09:21:31.967Z,8.95
2022-12-01T09:23:59.070Z,9.07
2022-12-01T09:26:25.887Z,9.38
2022-12-01T09:28:55.586Z,9.50
2022-12-01T09:31:23.052Z,8.93
2022-12-01T09:33:54.654Z,9.73
2022-12-01T09:36:21.292Z,9.38
2022-12-01T09:38:47.862Z,9.60
2022-12-01T09:41:19.091Z,8.57
2022-12-01T09:43:48.618Z,10.18
2022-12-01T09:46:22.642Z,9.93
2022-12-01T09:48:52.936Z,10.25
2022-12-01T09:51:22.067Z,10.15
2022-12-01T09:53:51.304Z,10.63
2022-12-01T09:56:22.291Z,10.60
2022-12-01T09:58:54.795Z,10.55
2022-12-01T10:01:30.588Z,10.93
2022-12-01T10:04:02.297Z,10.25
2022-12-01T10:06:34.401Z,10.35
2022-12-01T10:09:13.818Z,10.70
2022-12-01T10:11:42.040Z,10.60
2022-12-01T10:14:19.664Z,10.45
2022-12-01T10:16:59.652Z,11.68
2022-12-01T10:19:36.010Z,11.18
2022-12-01T10:22:45.235Z,11.15
2022-12-01T10:25:20.990Z,11.00
2022-12-01T10:27:59.617Z,10.52
2022-12-01T10:30:26.483Z,10.70
2022-12-01T10:32:56.364Z,11.50
2022-12-01T10:35:26.646Z,10.73
2022-12-01T10:37:56.147Z,12.10
2022-12-01T10:40:27.199Z,10.52
2022-12-01T10:42:54.245Z,10.95
2022-12-01T10:45:23.826Z,12.25
2022-12-01T10:48:12.238Z,10.32
2022-12-01T10:50:39.123Z,11.55
2022-12-01T10:53:05.732Z,10.52
2022-12-01T10:55:34.853Z,11.70
2022-12-01T10:58:12.453Z,11.68
2022-12-01T11:00:59.599Z,12.45
2022-12-01T11:03:31.193Z,10.90
2022-12-01T11:06:00.576Z,11.15
2022-12-01T11:08:34.723Z,11.48
2022-12-01T11:11:02.128Z,11.55
2022-12-01T11:13:31.541Z,11.77
2022-12-01T11:16:00.260Z,10.40
2022-12-01T11:18:33.217Z,10.82
2022-12-01T11:21:09.892Z,11.65
2022-12-01T11:23:38.818Z,10.07
2022-12-01T11:26:10.666Z,10.90
2022-12-01T11:28:40.862Z,10.57
2022-12-01T11:31:09.299Z,10.23
2022-12-01T11:33:45.137Z,9.90
2022-12-01T11:36:21.549Z,9.95
2022-12-01T11:38:49.198Z,10.65
2022-12-01T11:41:28.415Z,10.25
2022-12-01T11:44:01.573Z,9.68
2022-12-01T11:46:32.042Z,9.48
2022-12-01T11:49:01.694Z,10.38
2022-12-01T11:51:31.980Z,10.10
2022-12-01T11:54:12.327Z,10.73
2022-12-01T11:56:39.223Z,10.15
2022-12-01T11:59:10.685Z,9.77
2022-12-01T12:01:50.521Z,9.77
2022-12-01T12:04:42.736Z,8.95
2022-12-01T12:07:17.205Z,10.43
2022-12-01T12:10:03.002Z,9.45
2022-12-01T12:12:42.366Z,9.60
2022-12-01T12:15:20.696Z,9.48
2022-12-01T12:18:03.578Z,9.25
2022-12-01T12:20:45.450Z,9.27
2022-12-01T12:23:32.184Z,9.13
2022-12-01T12:26:07.109Z,10.10
2022-12-01T12:28:51.071Z,9.98
2022-12-01T12:31:28.242Z,9.77
2022-12-01T12:34:16.037Z,9.15
2022-12-01T12:36:56.542Z,9.20
2022-12-01T12:39:40.731Z,10.07
2022-12-01T12:42:13.932Z,9.63
2022-12-01T12:44:50.139Z,10.32
2022-12-01T12:47:26.363Z,8.77
2022-12-01T12:50:03.731Z,10.75
2022-12-01T12:52:36.835Z,9.68
2022-12-01T12:55:13.496Z,9.57
2022-12-01T12:57:45.726Z,10.18
2022-12-01T13:00:16.971Z,10.63
2022-12-01T13:02:48.411Z,10.30
2022-12-01T13:05:21.876Z,9.27
2022-12-01T13:07:55.114Z,10.40
2022-12-01T13:10:28.505Z,10.25
2022-12-01T13:13:00.309Z,9.38
2022-12-01T13:15:28.806Z,9.40
2022-12-01T13:18:03.228Z,10.40
2022-12-01T13:20:36.240Z,9.27
2022-12-01T13:23:05.034Z,11.07
2022-12-01T13:25:35.096Z,9.98
2022-12-01T13:28:04.628Z,9.38
2022-12-01T13:30:31.463Z,9.45
2022-12-01T13:33:00.981Z,9.07
2022-12-01T13:35:31.010Z,9.68
2022-12-01T13:38:21.848Z,10.25
2022-12-01T13:40:49.127Z,9.63
2022-12-01T13:43:19.801Z,9.18
2022-12-01T13:45:48.484Z,9.40
2022-12-01T13:48:28.422Z,9.75
2022-12-01T13:51:01.188Z,9.52
2022-12-01T13:53:31.592Z,9.32
2022-12-01T13:56:06.437Z,9.27
2022-12-01T13:58:54.682Z,9.48
2022-12-01T14:01:44.555Z,9.80
2022-12-01T14:04:31.752Z,9.35
2022-12-01T14:07:31.388Z,9.43
2022-12-01T14:10:22.787Z,8.88
2022-12-01T14:12:51.137Z,7.95
2022-12-01T14:15:28.994Z,8.38
2022-12-01T14:18:02.305Z,9.13
2022-12-01T14:20:33.085Z,8.95
2022-12-01T14:23:19.571Z,9.55
2022-12-01T14:26:03.748Z,8.38
2022-12-01T14:29:18.597Z,9.27
2022-12-01T14:32:22.075Z,8.80
2022-12-01T14:35:13.000Z,9.00
2022-12-01T14:37:49.950Z,8.82
2022-12-01T14:40:22.036Z,8.30
2022-12-01T14:42:53.587Z,8.35
2022-12-01T14:45:25.022Z,8.80
2022-12-01T14:47:59.649Z,8.32
2022-12-01T14:50:34.656Z,8.10
2022-12-01T14:53:12.125Z,8.82
2022-12-01T14:55:42.688Z,8.57
2022-12-01T14:58:17.227Z,8.32
2022-12-01T15:00:56.669Z,7.85
2022-12-01T15:03:32.088Z,8.27
2022-12-01T15:05:59.329Z,8.13
2022-12-01T15:11:21.437Z,8.35
2022-12-01T15:13:51.792Z,7.93
2022-12-01T15:16:20.369Z,8.13
2022-12-01T15:18:47.490Z,8.15
2022-12-01T15:21:19.573Z,9.00
2022-12-01T15:23:56.890Z,8.25
2022-12-01T15:26:25.418Z,7.50
2022-12-01T15:29:12.590Z,8.63
2022-12-01T15:31:39.911Z,8.02
2022-12-01T15:34:14.277Z,8.57
2022-12-01T15:36:41.308Z,8.20
2022-12-01T15:39:13.447Z,9.18
2022-12-01T15:41:43.105Z,8.63
2022-12-01T15:44:19.896Z,7.35
2022-12-01T15:46:46.532Z,8.82
2022-12-01T15:49:18.276Z,8.43
2022-12-01T15:51:45.312Z,9.00
2022-12-01T15:54:19.093Z,7.88
2022-12-01T15:56:46.544Z,7.65
2022-12-01T15:59:33.232Z,8.68
2022-12-01T16:02:06.474Z,8.27
2022-12-01T16:04:33.324Z,8.75
2022-12-01T16:07:04.131Z,9.02
2022-12-01T16:09:34.607Z,8.02
2022-12-01T16:12:20.664Z,9.00
2022-12-01T16:14:55.879Z,8.27
2022-12-01T16:17:23.665Z,8.55
2022-12-01T16:20:31.901Z,9.85
2022-12-01T16:23:00.465Z,9.57
2022-12-01T16:25:34.331Z,9.75
2022-12-01T16:28:01.858Z,14.43
2022-12-01T16:30:36.266Z,13.27
2022-12-01T16:33:13.222Z,9.20
2022-12-01T16:35:39.891Z,8.40
2022-12-01T16:38:12.536Z,8.57
2022-12-01T16:40:40.944Z,8.40
2022-12-01T16:43:13.196Z,8.52
2022-12-01T16:45:41.373Z,8.30
2022-12-01T16:48:09.517Z,8.35
2022-12-01T16:50:36.674Z,8.27
2022-12-01T16:53:03.901Z,7.57
2022-12-01T16:55:40.293Z,7.35
2022-12-01T16:58:07.759Z,7.75
2022-12-01T17:00:34.517Z,7.93
2022-12-01T17:03:02.761Z,8.25
2022-12-01T17:05:29.606Z,8.38
2022-12-01T17:07:56.521Z,7.75
2022-12-01T17:10:23.327Z,8.40
2022-12-01T17:12:50.050Z,7.93
2022-12-01T17:15:16.865Z,8.15
2022-12-01T17:17:43.792Z,8.95
2022-12-01T17:20:12.660Z,9.05
2022-12-01T17:22:39.445Z,10.07
2022-12-01T17:25:07.474Z,6.93
2022-12-01T17:27:34.257Z,7.40
2022-12-01T17:30:00.867Z,7.25
2022-12-01T17:32:28.026Z,8.75
2022-12-01T17:34:54.787Z,8.38
2022-12-01T17:37:23.066Z,7.75
2022-12-01T17:39:50.273Z,7.45
2022-12-01T17:42:17.243Z,7.53
2022-12-01T17:44:44.098Z,7.60
2022-12-01T17:47:10.792Z,7.70
2022-12-01T17:49:40.802Z,9.10
2022-12-01T17:52:07.714Z,7.93
2022-12-01T17:54:35.746Z,8.98
2022-12-01T17:57:02.819Z,8.30
2022-12-01T17:59:29.479Z,7.93
2022-12-01T18:01:56.238Z,10.20
2022-12-01T18:04:22.991Z,11.35
2022-12-01T18:06:54.056Z,14.35
2022-12-01T18:09:21.755Z,15.88
2022-12-01T18:11:50.044Z,12.60
2022-12-01T18:14:16.974Z,11.88
2022-12-01T18:16:44.292Z,8.80
2022-12-01T18:19:11.027Z,10.13
2022-12-01T18:21:38.584Z,9.45
2022-12-01T18:24:06.410Z,9.32
2022-12-01T18:26:33.592Z,9.07
2022-12-01T18:29:04.156Z,11.18
2022-12-01T18:31:31.647Z,12.30
2022-12-01T18:33:59.607Z,11.23
2022-12-01T18:36:26.745Z,8.50
2022-12-01T18:38:54.739Z,9.70
2022-12-01T18:41:21.598Z,8.02
2022-12-01T18:43:48.242Z,9.15
2022-12-01T18:46:17.741Z,8.05
2022-12-01T18:48:45.379Z,8.23
2022-12-01T18:51:13.282Z,7.53
2022-12-01T18:53:40.414Z,7.97
2022-12-01T18:56:11.771Z,7.55
2022-12-01T18:58:39.721Z,7.60
2022-12-01T19:01:20.547Z,7.25
2022-12-01T19:03:48.455Z,7.63
2022-12-01T19:06:15.141Z,7.95
2022-12-01T19:08:42.171Z,15.45
2022-12-01T19:11:09.070Z,27.42
2022-12-01T19:13:35.956Z,30.17
2022-12-01T19:16:06.487Z,20.50
2022-12-01T19:18:35.052Z,16.60
2022-12-01T19:21:01.834Z,13.55
2022-12-01T19:23:28.452Z,12.50
2022-12-01T19:25:55.660Z,12.52
2022-12-01T19:28:22.317Z,11.05
2022-12-01T19:30:49.381Z,9.10
2022-12-01T19:33:16.398Z,8.35
2022-12-01T19:35:44.449Z,8.40
2022-12-01T19:38:11.192Z,8.67
2022-12-01T19:40:38.378Z,8.52
2022-12-01T19:43:05.300Z,8.52
2022-12-01T19:45:32.088Z,8.55
2022-12-01T19:47:58.710Z,7.95
2022-12-01T19:50:26.645Z,8.82
2022-12-01T19:52:54.618Z,8.30
2022-12-01T19:55:21.588Z,8.65
2022-12-01T19:57:50.401Z,8.68
2022-12-01T20:00:18.049Z,8.70
2022-12-01T20:02:44.804Z,8.80
2022-12-01T20:05:11.463Z,8.60
2022-12-01T20:07:38.127Z,9.13
2022-12-01T20:10:06.915Z,8.20
2022-12-01T20:12:34.593Z,8.18
2022-12-01T20:15:01.440Z,8.43
2022-12-01T20:17:28.248Z,8.95
2022-12-01T20:19:54.849Z,10.10
2022-12-01T20:22:21.506Z,9.30
2022-12-01T20:24:48.449Z,11.40
2022-12-01T20:27:16.620Z,20.10
2022-12-01T20:29:43.347Z,14.93
2022-12-01T20:32:10.222Z,19.00
2022-12-01T20:34:36.922Z,11.77
2022-12-01T20:37:03.628Z,8.82
2022-12-01T20:39:30.966Z,9.30
2022-12-01T20:41:57.976Z,9.15
2022-12-01T20:44:25.967Z,9.23
2022-12-01T20:46:52.602Z,9.35
2022-12-01T20:49:20.732Z,8.32
2022-12-01T20:51:47.620Z,8.23
2022-12-01T20:54:30.905Z,9.38
2022-12-01T20:56:58.305Z,8.93
2022-12-01T20:59:27.106Z,10.63
2022-12-01T21:01:54.079Z,9.18
2022-12-01T21:04:20.882Z,9.57
2022-12-01T21:06:47.750Z,8.82
2022-12-01T21:09:14.329Z,9.70
2022-12-01T21:11:45.093Z,8.65
2022-12-01T21:14:17.984Z,9.48
2022-12-01T21:16:47.893Z,8.37
2022-12-01T21:19:20.993Z,8.90
2022-12-01T21:21:47.651Z,8.45
2022-12-01T21:24:15.971Z,8.60
2022-12-01T21:26:46.690Z,7.80
2022-12-01T21:29:18.918Z,8.45
2022-12-01T21:31:49.116Z,8.98
2022-12-01T21:34:18.807Z,8.88
2022-12-01T21:36:47.477Z,8.65
2022-12-01T21:39:18.659Z,9.48
2022-12-01T21:41:45.283Z,9.97
2022-12-01T21:44:14.923Z,10.02
2022-12-01T21:46:41.617Z,9.93
2022-12-01T21:49:17.535Z,9.50
2022-12-01T21:51:45.077Z,8.80
2022-12-01T21:54:15.425Z,8.35
2022-12-01T21:56:42.723Z,9.20
2022-12-01T21:59:15.815Z,9.20
2022-12-01T22:01:42.518Z,9.07
2022-12-01T22:04:15.623Z,8.90
2022-12-01T22:06:46.673Z,9.40
2022-12-01T22:09:19.445Z,8.90
2022-12-01T22:11:50.905Z,8.93
2022-12-01T22:14:20.766Z,9.48
2022-12-01T22:16:51.433Z,10.27
2022-12-01T22:19:27.643Z,9.85
2022-12-01T22:22:01.052Z,8.50
2022-12-01T22:24:32.597Z,9.45
2022-12-01T22:27:21.647Z,8.85
2022-12-01T22:29:51.140Z,9.00
2022-12-01T22:32:39.176Z,8.80
2022-12-01T22:35:22.438Z,8.65
2022-12-01T22:37:51.234Z,8.90
2022-12-01T22:40:36.327Z,9.25
2022-12-01T22:43:23.716Z,8.57
2022-12-01T22:45:59.615Z,7.70
2022-12-01T22:48:33.871Z,8.60
2022-12-01T22:51:16.841Z,9.05
2022-12-01T22:53:45.241Z,8.88
2022-12-01T22:56:25.698Z,9.40
2022-12-01T22:58:52.746Z,8.50
2022-12-01T23:01:24.578Z,9.13
2022-12-01T23:03:55.537Z,8.60
2022-12-01T23:07:02.006Z,9.50
2022-12-01T23:09:34.975Z,9.15
2022-12-01T23:12:16.671Z,8.55
2022-12-01T23:14:46.419Z,9.50
2022-12-01T23:17:16.838Z,9.20
2022-12-01T23:19:43.514Z,8.32
2022-12-01T23:22:10.923Z,8.45
2022-12-01T23:24:39.345Z,9.30
2022-12-01T23:27:06.105Z,8.27
2022-12-01T23:29:33.414Z,8.50
2022-12-01T23:32:00.091Z,10.00
2022-12-01T23:34:26.727Z,8.02
2022-12-01T23:36:53.509Z,8.93
2022-12-01T23:39:31.826Z,8.15
2022-12-01T23:41:59.824Z,7.82
2022-12-01T23:44:36.888Z,9.15
2022-12-01T23:47:08.262Z,8.30
2022-12-01T23:49:35.475Z,7.80
2022-12-01T23:52:03.330Z,9.18
2022-12-01T23:54:32.136Z,8.10
2022-12-01T23:57:02.606Z,8.75
2022-12-01T23:59:31.292Z,8.30
